Time;durP1;ratioP1;P1;durP2;ratioP2;P2;SDS_P1;SDS_P2;PMS_P1;PMS_P2;Temp;Humidity;BMP_temperature;BMP_pressure;BME280_temperature;BME280_humidity;BME280_pressure;Samples;Min_cycle;Max_cycle;Signal;HPM_P1;HPM_P2
2023/11/02 00:00:36;;;;;;;6.97;2.55;;;;;;;18.29;43.84;98513.75;4926727;28;20073;-81
2023/11/02 00:03:05;;;;;;;4.30;2.58;;;;;;;18.25;43.76;98510.66;4976230;28;20031;-81
2023/11/02 00:05:56;;;;;;;4.90;2.92;;;;;;;18.28;43.66;98520.88;4942645;28;20042;-81
2023/11/02 00:08:23;;;;;;;4.95;2.85;;;;;;;18.26;43.58;98517.56;4975750;28;20023;-81
2023/11/02 00:10:48;;;;;;;5.05;2.67;;;;;;;18.24;43.49;98504.53;4926841;28;20094;-81
2023/11/02 00:13:19;;;;;;;6.28;2.65;;;;;;;18.29;43.47;98514.56;4942219;28;20034;-82
2023/11/02 00:15:44;;;;;;;6.63;2.85;;;;;;;18.25;43.44;98511.47;4958494;28;20118;-80
2023/11/02 00:18:10;;;;;;;4.40;2.33;;;;;;;18.29;43.56;98517.22;4942473;28;20110;-81
2023/11/02 00:20:37;;;;;;;3.45;2.42;;;;;;;18.30;43.46;98510.13;4980510;28;20034;-81
2023/11/02 00:23:03;;;;;;;3.88;2.42;;;;;;;18.31;43.30;98504.69;4961908;28;20026;-81
2023/11/02 00:25:48;;;;;;;4.72;2.60;;;;;;;18.27;43.25;98501.53;4945953;28;20445;-82
2023/11/02 00:28:13;;;;;;;9.75;3.08;;;;;;;18.30;43.26;98500.38;4977876;28;20034;-77
2023/11/02 00:30:39;;;;;;;5.78;3.03;;;;;;;18.29;43.07;98495.25;4977388;28;20401;-78
2023/11/02 00:33:05;;;;;;;6.43;2.75;;;;;;;18.33;43.13;98501.84;4945139;28;20073;-78
2023/11/02 00:35:30;;;;;;;4.75;3.00;;;;;;;18.30;43.13;98491.63;4977587;28;20038;-78
2023/11/02 00:37:56;;;;;;;4.38;2.60;;;;;;;18.32;43.32;98492.28;4961218;28;20054;-78
2023/11/02 00:40:22;;;;;;;6.47;2.72;;;;;;;18.31;43.27;98498.56;4977040;28;20053;-78
2023/11/02 00:42:50;;;;;;;5.72;2.92;;;;;;;18.29;43.40;98497.91;4977477;28;20116;-78
2023/11/02 00:45:16;;;;;;;6.90;2.58;;;;;;;18.30;43.48;98502.22;4977454;28;20054;-78
2023/11/02 00:47:41;;;;;;;5.97;2.80;;;;;;;18.29;43.31;98488.16;4960229;28;20046;-78
2023/11/02 00:50:39;;;;;;;5.03;2.78;;;;;;;18.31;43.20;98493.25;4976640;28;20034;-77
2023/11/02 00:53:05;;;;;;;7.10;2.90;;;;;;;18.30;43.24;98495.09;4994250;28;20089;-78
2023/11/02 00:55:34;;;;;;;3.88;2.40;;;;;;;18.26;43.28;98491.97;4976924;28;20037;-78
2023/11/02 00:58:05;;;;;;;6.10;2.67;;;;;;;18.30;43.19;98484.53;4960630;28;20053;-78
2023/11/02 01:01:11;;;;;;;4.35;2.80;;;;;;;18.34;43.17;98482.34;4945442;28;20029;-78
2023/11/02 01:03:36;;;;;;;6.97;2.90;;;;;;;18.32;43.22;98471.16;4899709;29;20075;-78
2023/11/02 01:06:02;;;;;;;6.38;3.10;;;;;;;18.36;43.05;98475.06;4883762;29;20583;-78
2023/11/02 01:08:31;;;;;;;4.53;2.90;;;;;;;18.35;43.05;98473.44;4883765;29;20044;-78
2023/11/02 01:10:57;;;;;;;5.55;2.50;;;;;;;18.36;43.04;98464.50;4883417;29;20036;-78
2023/11/02 01:13:22;;;;;;;9.57;3.25;;;;;;;18.31;43.20;98462.41;4899176;29;20131;-78
2023/11/02 01:16:07;;;;;;;5.55;2.65;;;;;;;18.40;43.23;98474.53;4883849;29;20107;-78
2023/11/02 01:18:33;;;;;;;6.07;2.80;;;;;;;18.42;42.94;98474.38;4899412;29;20050;-78
2023/11/02 01:21:04;;;;;;;7.32;2.63;;;;;;;18.45;43.23;98479.31;4868192;29;20053;-77
2023/11/02 01:23:33;;;;;;;4.65;2.80;;;;;;;18.43;43.15;98474.19;4899197;29;20055;-78
2023/11/02 01:26:00;;;;;;;5.35;2.92;;;;;;;18.45;42.99;98463.47;4883801;29;20036;-79
2023/11/02 01:28:48;;;;;;;6.32;2.78;;;;;;;18.46;42.73;98462.47;4883889;29;20044;-78
2023/11/02 01:31:16;;;;;;;4.43;2.80;;;;;;;18.50;42.54;98461.13;4883914;29;20032;-78
2023/11/02 01:33:55;;;;;;;5.85;3.08;;;;;;;18.53;42.44;98462.59;4901092;28;20049;-79
2023/11/02 01:36:39;;;;;;;4.88;2.60;;;;;;;18.55;42.31;98460.59;4960305;28;20034;-79
2023/11/02 01:39:14;;;;;;;3.55;2.75;;;;;;;18.53;42.55;98465.22;4976195;28;20378;-78
2023/11/02 01:41:43;;;;;;;5.55;2.90;;;;;;;18.53;42.79;98458.16;4993620;28;20122;-79
2023/11/02 01:44:14;;;;;;;5.30;2.80;;;;;;;18.55;42.70;98461.44;4993188;28;20050;-78
2023/11/02 01:46:46;;;;;;;7.60;2.67;;;;;;;18.55;42.82;98450.00;4975910;28;20030;-79
2023/11/02 01:49:17;;;;;;;6.90;2.70;;;;;;;18.53;42.81;98444.09;4993295;28;20453;-78
2023/11/02 01:52:14;;;;;;;5.15;2.60;;;;;;;18.53;42.59;98455.50;4944162;28;20393;-79
2023/11/02 01:54:47;;;;;;;5.45;2.90;;;;;;;18.48;42.75;98454.38;4978565;28;20528;-79
2023/11/02 01:57:28;;;;;;;7.03;2.92;;;;;;;18.50;42.70;98447.06;4959952;28;20405;-79
2023/11/02 02:00:00;;;;;;;8.23;3.15;;;;;;;18.55;42.74;98452.66;4977484;28;20089;-79
2023/11/02 02:02:30;;;;;;;6.10;2.70;;;;;;;18.57;42.89;98451.50;4960180;28;20030;-79
2023/11/02 02:05:05;;;;;;;6.65;2.92;;;;;;;18.50;42.79;98440.00;4993449;28;20117;-79
2023/11/02 02:07:33;;;;;;;9.98;3.17;;;;;;;18.58;42.73;98455.78;4959933;28;20057;-79
2023/11/02 02:10:11;;;;;;;;;;;;;;;18.60;42.58;98460.91;4993367;28;20056;-79
2023/11/02 02:12:49;;;;;;;9.88;3.17;;;;;;;18.57;42.77;98459.44;4976555;28;19964;-78
2023/11/02 02:15:23;;;;;;;5.38;3.17;;;;;;;18.59;42.77;98454.78;4991861;28;20058;-79
2023/11/02 02:17:54;;;;;;;3.70;2.47;;;;;;;18.59;42.61;98454.78;4975644;28;20038;-79
2023/11/02 02:20:23;;;;;;;5.45;2.55;;;;;;;18.61;42.83;98446.66;4991984;28;20030;-79
2023/11/02 02:22:54;;;;;;;5.35;2.63;;;;;;;18.60;42.80;98434.47;4959905;28;20049;-79
2023/11/02 02:25:28;;;;;;;6.22;2.78;;;;;;;18.63;42.84;98436.75;4975294;28;20037;-79
2023/11/02 02:28:31;;;;;;;5.90;2.97;;;;;;;18.63;42.88;98434.13;4975503;28;20037;-79
2023/11/02 02:31:24;;;;;;;4.45;2.70;;;;;;;18.62;42.96;98438.56;4975362;28;20113;-78
2023/11/02 02:34:28;;;;;;;5.10;2.45;;;;;;;18.64;42.63;98438.38;4993263;28;20150;-77
2023/11/02 02:37:01;;;;;;;5.93;3.00;;;;;;;18.65;42.50;98426.81;4975361;28;20034;-87
2023/11/02 02:39:28;;;;;;;7.78;2.42;;;;;;;18.66;42.43;98422.34;4992509;28;20068;-84
2023/11/02 02:41:59;;;;;;;5.70;2.60;;;;;;;18.65;42.43;98413.59;4975868;28;20109;-88
2023/11/02 02:44:25;;;;;;;6.40;2.50;;;;;;;18.68;42.74;98430.94;4959102;28;20050;-81
2023/11/02 02:46:51;;;;;;;3.78;2.60;;;;;;;18.62;42.63;98417.41;4975494;28;20562;-85
2023/11/02 02:49:17;;;;;;;3.38;2.10;;;;;;;18.68;42.71;98426.47;4975333;28;20030;-84
2023/11/02 02:51:44;;;;;;;5.32;2.88;;;;;;;18.70;42.84;98421.00;4992901;28;20105;-80
2023/11/02 02:54:10;;;;;;;3.58;2.28;;;;;;;18.69;42.87;98406.97;4991716;28;20042;-80
2023/11/02 02:56:37;;;;;;;5.70;2.70;;;;;;;18.70;42.80;98403.31;4975189;28;20031;-79
2023/11/02 02:59:09;;;;;;;5.47;2.67;;;;;;;18.66;42.79;98402.03;4975287;28;20026;-80
2023/11/02 03:01:46;;;;;;;5.38;2.50;;;;;;;18.70;42.84;98394.56;4958562;28;20035;-80
2023/11/02 03:04:13;;;;;;;7.40;2.28;;;;;;;18.68;43.01;98388.66;4959324;28;20038;-80
2023/11/02 03:06:54;;;;;;;4.53;2.40;;;;;;;18.66;43.11;98375.63;4974813;28;20046;-80
2023/11/02 03:09:25;;;;;;;6.10;2.42;;;;;;;18.69;43.11;98379.69;4975400;28;20724;-80
2023/11/02 03:11:53;;;;;;;5.10;2.70;;;;;;;18.62;43.33;98390.16;4975955;28;20137;-81
2023/11/02 03:14:18;;;;;;;;;;;;;;;18.60;43.60;98386.88;4979529;28;20037;-81
2023/11/02 03:16:44;;;;;;;5.82;2.90;;;;;;;18.57;43.77;98381.97;4978153;28;19909;-82
2023/11/02 03:19:21;;;;;;;3.75;2.22;;;;;;;18.59;43.58;98377.31;4978727;28;20038;-81
2023/11/02 03:21:46;;;;;;;6.68;2.67;;;;;;;18.58;43.67;98379.13;4979230;28;20035;-81
2023/11/02 03:24:27;;;;;;;7.22;2.90;;;;;;;18.59;43.53;98372.03;4962782;28;20038;-81
2023/11/02 03:26:57;;;;;;;4.25;2.35;;;;;;;18.55;43.78;98361.00;4962387;28;20042;-81
2023/11/02 03:29:28;;;;;;;5.03;2.33;;;;;;;18.57;43.76;98351.06;4978705;28;20071;-80
2023/11/02 03:32:28;;;;;;;6.13;2.45;;;;;;;18.56;44.20;98344.09;4978972;28;20037;-80
2023/11/02 03:35:31;;;;;;;5.88;2.63;;;;;;;18.54;44.17;98340.03;4958107;28;20133;-80
2023/11/02 03:38:22;;;;;;;4.80;2.33;;;;;;;18.53;44.66;98349.78;4991513;28;20038;-80
2023/11/02 03:41:11;;;;;;;4.88;2.20;;;;;;;18.50;44.92;98336.91;4995057;28;20109;-80
2023/11/02 03:43:52;;;;;;;6.22;2.35;;;;;;;18.48;45.26;98332.81;4994544;28;20062;-81
2023/11/02 03:46:18;;;;;;;4.05;2.15;;;;;;;18.48;45.32;98328.31;4994777;28;20034;-80
2023/11/02 03:48:48;;;;;;;4.47;2.20;;;;;;;18.44;45.61;98319.94;4978158;28;20538;-80
2023/11/02 03:51:44;;;;;;;3.70;2.00;;;;;;;18.45;45.84;98326.03;4994468;28;20033;-80
2023/11/02 03:54:16;;;;;;;7.47;2.40;;;;;;;18.42;45.91;98336.97;4960451;28;20050;-80
2023/11/02 03:57:19;;;;;;;6.07;2.47;;;;;;;18.42;46.12;98337.81;4978172;28;20129;-84
2023/11/02 04:00:20;;;;;;;6.10;2.35;;;;;;;18.43;46.40;98341.25;4995726;28;20034;-85
2023/11/02 04:02:48;;;;;;;4.00;2.13;;;;;;;18.41;46.48;98341.44;4976674;28;20092;-81
2023/11/02 04:05:21;;;;;;;3.70;2.00;;;;;;;18.42;46.50;98347.53;4984479;28;20459;-83
2023/11/02 04:07:49;;;;;;;5.95;2.20;;;;;;;18.41;46.60;98349.38;4980494;28;20038;-80
2023/11/02 04:10:14;;;;;;;;;;;;;;;18.41;46.89;98340.63;4979721;28;20026;-83
2023/11/02 04:12:59;;;;;;;2.70;1.83;;;;;;;18.37;47.03;98336.69;4948905;28;19945;-80
2023/11/02 04:15:24;;;;;;;4.60;2.42;;;;;;;18.36;46.96;98338.50;4958422;28;20483;-82
2023/11/02 04:17:50;;;;;;;5.35;2.30;;;;;;;18.36;46.99;98343.78;4941935;28;20047;-81
2023/11/02 04:20:15;;;;;;;4.25;2.28;;;;;;;18.32;47.16;98336.38;4958782;28;20027;-79
2023/11/02 04:22:41;;;;;;;4.03;2.08;;;;;;;18.33;46.91;98330.09;4942219;28;20085;-80
2023/11/02 04:25:06;;;;;;;4.82;2.20;;;;;;;18.23;47.29;98328.53;4926603;28;20089;-80
2023/11/02 04:27:32;;;;;;;3.90;1.92;;;;;;;18.30;47.20;98339.22;4926245;28;20031;-80
2023/11/02 04:29:57;;;;;;;3.03;2.20;;;;;;;18.27;47.06;98335.09;4942604;28;20101;-79
2023/11/02 04:32:23;;;;;;;6.13;2.20;;;;;;;18.24;47.16;98330.16;4926694;28;20097;-80
2023/11/02 04:34:48;;;;;;;4.53;2.13;;;;;;;18.25;47.05;98339.72;4942487;28;20031;-84
2023/11/02 04:37:14;;;;;;;4.63;1.98;;;;;;;18.19;46.87;98329.88;4942954;28;20038;-85
2023/11/02 04:39:43;;;;;;;6.00;1.85;;;;;;;18.17;46.85;98331.03;4942532;28;20371;-82
2023/11/02 04:42:10;;;;;;;5.68;1.90;;;;;;;18.19;46.88;98343.06;4961251;28;20123;-75
2023/11/02 04:44:35;;;;;;;4.35;2.00;;;;;;;18.17;46.95;98339.81;4941695;28;20058;-77
2023/11/02 04:47:01;;;;;;;6.63;2.30;;;;;;;18.20;49.12;98342.09;4926039;28;20031;-74
2023/11/02 04:49:27;;;;;;;4.47;2.20;;;;;;;18.68;55.90;98347.16;4941974;28;20077;-74
2023/11/02 04:51:56;;;;;;;5.60;2.30;;;;;;;19.02;54.39;98342.41;4941609;28;20046;-77
2023/11/02 04:54:28;;;;;;;16.77;2.25;;;;;;;19.22;52.65;98346.16;4926275;28;20093;-74
2023/11/02 04:56:53;;;;;;;11.63;2.50;;;;;;;19.41;51.37;98336.84;4926313;28;20498;-76
2023/11/02 04:59:19;;;;;;;25.38;2.33;;;;;;;19.54;50.45;98341.50;4929179;28;20061;-79
2023/11/02 05:01:52;;;;;;;8.35;2.05;;;;;;;19.68;49.81;98353.91;4956488;28;20515;-76
2023/11/02 05:04:18;;;;;;;6.97;2.20;;;;;;;19.76;49.48;98344.22;4981917;28;20034;-73
2023/11/02 05:06:44;;;;;;;7.57;2.30;;;;;;;19.92;48.36;98367.03;4956464;28;20090;-78
2023/11/02 05:09:09;;;;;;;6.72;1.80;;;;;;;20.03;47.71;98359.41;4930671;28;20133;-77
2023/11/02 05:11:35;;;;;;;8.30;1.95;;;;;;;19.91;46.85;98370.69;4944416;28;20045;-78
2023/11/02 05:14:01;;;;;;;5.95;1.85;;;;;;;19.77;46.90;98381.13;4947407;28;20583;-75
2023/11/02 05:16:27;;;;;;;7.97;1.95;;;;;;;19.63;45.39;98379.31;4941704;28;20033;-74
2023/11/02 05:18:53;;;;;;;12.20;1.90;;;;;;;19.46;46.88;98387.41;4994045;28;20030;-77
2023/11/02 05:21:18;;;;;;;6.65;2.00;;;;;;;19.43;47.63;98389.63;4944471;28;20041;-76
2023/11/02 05:23:45;;;;;;;17.52;2.03;;;;;;;19.35;46.49;98398.47;4944085;28;20037;-77
2023/11/02 05:26:13;;;;;;;6.15;2.00;;;;;;;19.30;47.88;98400.84;4975122;28;20034;-78
2023/11/02 05:28:39;;;;;;;4.93;2.08;;;;;;;19.26;46.55;98402.19;4943543;28;20413;-77
2023/11/02 05:31:05;;;;;;;5.63;2.08;;;;;;;19.22;47.28;98412.31;4958918;28;20041;-78
2023/11/02 05:33:30;;;;;;;5.18;1.83;;;;;;;19.18;46.82;98411.03;4967483;28;20041;-80
2023/11/02 05:35:57;;;;;;;5.40;1.83;;;;;;;19.15;47.14;98416.72;4977635;28;20038;-77
2023/11/02 05:38:22;;;;;;;3.60;1.80;;;;;;;19.12;47.28;98419.72;4961956;28;20099;-79
2023/11/02 05:40:48;;;;;;;3.78;1.50;;;;;;;19.10;47.94;98422.53;4979066;28;20425;-76
2023/11/02 05:43:15;;;;;;;9.23;1.70;;;;;;;19.06;48.20;98418.59;4986428;28;20038;-77
2023/11/02 05:45:40;;;;;;;5.05;1.63;;;;;;;19.05;48.92;98418.78;4974005;28;20483;-77
2023/11/02 05:48:06;;;;;;;2.63;1.50;;;;;;;18.95;48.66;98408.44;4995192;28;20022;-77
2023/11/02 05:50:31;;;;;;;3.75;1.60;;;;;;;18.94;48.69;98414.72;4962916;28;20117;-78
2023/11/02 05:52:57;;;;;;;2.75;1.63;;;;;;;18.89;49.16;98419.75;4970996;28;20113;-77
2023/11/02 05:55:23;;;;;;;5.25;1.65;;;;;;;18.86;48.72;98417.44;4951940;28;20044;-76
2023/11/02 05:57:50;;;;;;;4.05;1.70;;;;;;;18.80;48.52;98406.56;4944193;28;20125;-76
2023/11/02 06:00:16;;;;;;;3.25;1.77;;;;;;;18.77;49.12;98392.84;4968798;28;20038;-77
2023/11/02 06:02:41;;;;;;;6.35;1.85;;;;;;;18.77;49.82;98395.50;4964987;28;20097;-75
2023/11/02 06:05:08;;;;;;;6.13;2.15;;;;;;;18.96;50.87;98399.50;4949906;28;20042;-75
2023/11/02 06:07:34;;;;;;;2.72;1.40;;;;;;;19.02;49.69;98400.63;4943614;28;20117;-74
2023/11/02 06:10:00;;;;;;;3.42;1.77;;;;;;;19.00;49.14;98400.78;4943629;28;20413;-77
2023/11/02 06:12:26;;;;;;;4.40;1.80;;;;;;;18.94;49.74;98402.34;4943047;28;20043;-75
2023/11/02 06:14:52;;;;;;;3.53;1.73;;;;;;;18.95;49.91;98396.03;4958962;28;20073;-75
2023/11/02 06:17:17;;;;;;;6.03;2.00;;;;;;;18.99;51.59;98401.78;4943987;28;20439;-76
2023/11/02 06:19:43;;;;;;;4.10;2.00;;;;;;;18.95;50.36;98400.50;4943281;28;20042;-73
2023/11/02 06:22:08;;;;;;;2.90;1.73;;;;;;;18.86;50.13;98391.81;4947807;28;20058;-73
2023/11/02 06:24:34;;;;;;;4.60;1.58;;;;;;;18.83;49.72;98386.03;4956563;28;20133;-73
2023/11/02 06:26:59;;;;;;;6.57;2.00;;;;;;;18.82;49.53;98395.81;4951983;28;20066;-73
2023/11/02 06:29:25;;;;;;;4.50;1.60;;;;;;;18.78;49.35;98397.16;4959126;28;20084;-74
2023/11/02 06:31:50;;;;;;;3.50;1.75;;;;;;;18.73;49.35;98391.56;4959025;28;20041;-76
2023/11/02 06:34:17;;;;;;;3.15;1.60;;;;;;;18.72;49.23;98400.50;4940247;28;20034;-78
2023/11/02 06:36:43;;;;;;;3.72;1.58;;;;;;;18.71;49.18;98394.41;4929410;28;20414;-73
2023/11/02 06:39:09;;;;;;;3.40;1.77;;;;;;;18.68;48.99;98410.63;4960292;28;20048;-72
2023/11/02 06:41:35;;;;;;;5.65;1.50;;;;;;;18.66;48.80;98403.84;4965889;28;20414;-74
2023/11/02 06:44:00;;;;;;;2.72;1.52;;;;;;;18.62;48.84;98392.81;4952020;28;20066;-74
2023/11/02 06:46:26;;;;;;;6.45;1.98;;;;;;;18.64;48.87;98401.38;4953118;28;20042;-75
2023/11/02 06:48:51;;;;;;;3.60;1.60;;;;;;;18.62;49.04;98395.47;4928481;28;20073;-73
2023/11/02 06:51:17;;;;;;;3.90;1.55;;;;;;;18.61;48.96;98391.16;4943425;28;20041;-76
2023/11/02 06:53:42;;;;;;;4.45;1.60;;;;;;;18.61;49.09;98393.81;4952590;28;20035;-75
2023/11/02 06:56:08;;;;;;;3.10;1.65;;;;;;;18.61;49.21;98391.16;4956927;28;20039;-73
2023/11/02 06:58:33;;;;;;;5.35;1.60;;;;;;;18.57;49.19;98387.25;4927045;28;20039;-74
2023/11/02 07:01:00;;;;;;;3.00;1.60;;;;;;;18.55;49.24;98374.19;4948524;28;20502;-73
2023/11/02 07:03:27;;;;;;;2.58;1.30;;;;;;;18.61;49.23;98385.88;4958467;28;20038;-72
2023/11/02 07:05:53;;;;;;;4.38;1.67;;;;;;;18.62;48.99;98379.59;4943529;28;20030;-72
2023/11/02 07:08:18;;;;;;;4.00;1.58;;;;;;;18.63;48.95;98384.72;4965067;28;20468;-75
2023/11/02 07:10:44;;;;;;;2.95;1.48;;;;;;;18.67;49.96;98381.72;4956504;28;20097;-74
2023/11/02 07:13:11;;;;;;;5.63;1.33;;;;;;;19.20;52.75;98371.16;4961885;28;20148;-72
2023/11/02 07:15:37;;;;;;;43.83;2.40;;;;;;;19.64;51.08;98381.78;4962638;28;20034;-71
2023/11/02 07:18:03;;;;;;;19.27;1.55;;;;;;;19.82;50.40;98380.59;4946214;28;20026;-72
2023/11/02 07:20:29;;;;;;;8.85;1.48;;;;;;;20.09;49.20;98372.94;4957316;28;20066;-74
2023/11/02 07:22:55;;;;;;;18.52;1.77;;;;;;;20.32;48.53;98372.75;4962390;28;20026;-72
2023/11/02 07:25:20;;;;;;;13.07;1.58;;;;;;;20.50;48.17;98377.66;4949620;28;20137;-71
2023/11/02 07:27:47;;;;;;;15.65;1.67;;;;;;;20.57;48.04;98370.56;4995971;28;20058;-82
2023/11/02 07:30:14;;;;;;;14.60;2.05;;;;;;;20.67;47.44;98375.56;4963988;28;20096;-80
2023/11/02 07:32:40;;;;;;;10.73;1.60;;;;;;;20.75;47.75;98364.84;4955579;28;20109;-75
2023/11/02 07:35:07;;;;;;;8.32;1.50;;;;;;;20.81;47.73;98365.91;4978391;28;20030;-74
2023/11/02 07:37:33;;;;;;;18.90;2.20;;;;;;;20.87;47.63;98355.31;4995785;28;20085;-80
2023/11/02 07:39:59;;;;;;;9.38;1.90;;;;;;;20.93;47.02;98354.56;4962519;28;20046;-75
2023/11/02 07:42:24;;;;;;;12.48;2.28;;;;;;;21.01;47.38;98350.13;4995514;28;20066;-73
2023/11/02 07:44:50;;;;;;;21.35;2.85;;;;;;;21.04;49.08;98342.59;4962165;28;20049;-75
2023/11/02 07:47:15;;;;;;;14.40;2.15;;;;;;;21.09;48.61;98342.00;4962143;28;20034;-80
2023/11/02 07:49:41;;;;;;;9.52;2.13;;;;;;;21.18;47.36;98335.53;4946472;28;20122;-79
2023/11/02 07:52:07;;;;;;;21.92;3.45;;;;;;;21.30;47.12;98335.81;4945952;28;20457;-78
2023/11/02 07:54:36;;;;;;;17.48;3.65;;;;;;;21.40;47.66;98336.28;4946515;28;20034;-79
2023/11/02 07:57:07;;;;;;;18.42;2.78;;;;;;;21.45;48.38;98331.19;4945027;28;20069;-75
2023/11/02 07:59:36;;;;;;;20.92;2.70;;;;;;;21.46;48.39;98318.75;4963259;28;20394;-73
2023/11/02 08:02:03;;;;;;;9.32;2.20;;;;;;;21.57;48.31;98326.19;4945952;28;20528;-70
2023/11/02 08:04:28;;;;;;;9.68;2.05;;;;;;;21.52;48.04;98317.97;4962256;28;20038;-78
2023/11/02 08:06:54;;;;;;;13.93;2.33;;;;;;;21.38;47.15;98322.38;4946016;28;20038;-75
2023/11/02 08:09:20;;;;;;;7.68;1.80;;;;;;;21.31;46.97;98329.50;4994756;28;20042;-80
2023/11/02 08:11:45;;;;;;;6.78;1.98;;;;;;;21.22;46.42;98322.69;4955422;28;20033;-75
2023/11/02 08:14:11;;;;;;;6.68;1.77;;;;;;;21.20;46.12;98327.38;4977518;28;20410;-78
2023/11/02 08:16:37;;;;;;;3.83;1.38;;;;;;;21.24;46.05;98326.81;4945755;28;20078;-75
2023/11/02 08:19:02;;;;;;;5.47;1.60;;;;;;;21.29;50.57;98324.38;4961780;28;20030;-74
2023/11/02 08:21:28;;;;;;;2.97;1.30;;;;;;;21.31;48.83;98317.03;4966188;28;20047;-83
2023/11/02 08:23:55;;;;;;;3.42;1.30;;;;;;;21.40;47.49;98319.53;4948536;28;20065;-83
2023/11/02 08:26:21;;;;;;;3.08;1.38;;;;;;;21.42;46.79;98331.59;4945377;28;20036;-82
2023/11/02 08:28:51;;;;;;;5.60;1.20;;;;;;;21.40;47.30;98338.13;4961435;28;20058;-83
2023/11/02 08:31:33;;;;;;;2.22;1.30;;;;;;;21.23;46.97;98340.28;4961987;28;20041;-86
2023/11/02 08:33:59;;;;;;;5.53;1.30;;;;;;;21.03;46.69;98340.97;4979205;28;20093;-85
2023/11/02 08:36:27;;;;;;;4.00;1.13;;;;;;;20.85;46.71;98336.13;4947491;28;20116;-84
2023/11/02 08:38:57;;;;;;;3.63;1.38;;;;;;;20.63;46.49;98330.03;4966500;28;20045;-88
2023/11/02 08:41:31;;;;;;;3.92;1.40;;;;;;;20.51;46.57;98329.72;4949826;28;20457;-87
2023/11/02 08:44:06;;;;;;;3.65;1.40;;;;;;;20.29;46.67;98318.31;4949303;28;20078;-88
2023/11/02 08:46:38;;;;;;;3.10;1.40;;;;;;;20.21;46.97;98331.72;4966327;28;20486;-88
2023/11/02 08:49:06;;;;;;;6.57;1.50;;;;;;;20.06;46.74;98321.97;4979753;28;20445;-87
2023/11/02 08:51:41;;;;;;;9.67;1.53;;;;;;;20.36;52.92;98334.28;4963567;28;20121;-85
2023/11/02 08:54:08;;;;;;;7.10;1.60;;;;;;;20.55;51.63;98327.50;4996768;28;20034;-79
2023/11/02 08:56:34;;;;;;;11.23;1.50;;;;;;;20.67;50.53;98314.56;4977853;28;20034;-80
2023/11/02 08:59:00;;;;;;;3.30;1.50;;;;;;;20.92;49.71;98320.25;4964610;28;20162;-79
2023/11/02 09:01:26;;;;;;;4.22;1.40;;;;;;;20.87;48.26;98315.53;4945605;28;20065;-81
2023/11/02 09:03:52;;;;;;;9.05;1.70;;;;;;;20.70;47.77;98317.69;4961036;28;20030;-79
2023/11/02 09:06:19;;;;;;;3.72;1.35;;;;;;;20.40;48.09;98314.34;4977473;28;20114;-78
2023/11/02 09:08:45;;;;;;;5.68;1.40;;;;;;;20.19;48.01;98307.19;4959588;28;20030;-79
2023/11/02 09:11:12;;;;;;;4.97;1.40;;;;;;;20.07;47.87;98314.84;4976021;28;20597;-78
2023/11/02 09:13:37;;;;;;;7.47;1.70;;;;;;;19.99;47.83;98305.19;4960567;28;20046;-79
2023/11/02 09:16:04;;;;;;;6.95;1.80;;;;;;;19.86;48.31;98302.38;4960648;28;20504;-78
2023/11/02 09:18:30;;;;;;;4.18;1.77;;;;;;;19.78;48.30;98298.06;4993921;28;20426;-81
2023/11/02 09:20:55;;;;;;;5.10;1.70;;;;;;;19.70;48.39;98301.59;4960757;28;20056;-78
2023/11/02 09:23:21;;;;;;;3.22;1.70;;;;;;;19.68;48.43;98303.59;4960673;28;20038;-78
2023/11/02 09:25:47;;;;;;;3.85;1.73;;;;;;;19.63;48.67;98294.59;4961099;28;20442;-79
2023/11/02 09:28:13;;;;;;;5.05;1.70;;;;;;;19.56;48.76;98288.38;4960445;28;20137;-80
2023/11/02 09:30:42;;;;;;;10.73;1.77;;;;;;;19.50;48.81;98280.19;4960786;28;20034;-78
2023/11/02 09:33:07;;;;;;;4.80;1.65;;;;;;;19.49;48.93;98283.81;4993540;28;20034;-78
2023/11/02 09:35:33;;;;;;;7.45;1.95;;;;;;;19.44;49.26;98280.09;4960334;28;20525;-78
2023/11/02 09:37:59;;;;;;;3.80;1.67;;;;;;;19.44;49.33;98272.16;4976636;28;20409;-80
2023/11/02 09:40:24;;;;;;;5.47;1.55;;;;;;;19.40;49.46;98276.16;4960715;28;20026;-77
2023/11/02 09:42:50;;;;;;;5.50;2.00;;;;;;;19.38;49.68;98265.78;4976447;28;20046;-80
2023/11/02 09:45:16;;;;;;;6.35;1.90;;;;;;;19.41;49.76;98259.28;4976287;28;20145;-79
2023/11/02 09:47:42;;;;;;;7.28;1.80;;;;;;;19.42;49.87;98260.91;4960422;28;20036;-82
2023/11/02 09:50:08;;;;;;;3.53;1.85;;;;;;;19.45;49.71;98242.88;4960115;28;20417;-78
2023/11/02 09:52:34;;;;;;;3.33;1.90;;;;;;;19.45;49.58;98234.91;4959713;28;20031;-80
2023/11/02 09:55:00;;;;;;;5.30;2.20;;;;;;;19.55;49.77;98231.97;4976151;28;20049;-80
2023/11/02 09:57:26;;;;;;;6.20;2.20;;;;;;;19.64;49.83;98225.56;4975955;28;20085;-79
2023/11/02 09:59:51;;;;;;;7.72;2.50;;;;;;;19.74;49.76;98216.50;4959876;28;20038;-80
2023/11/02 10:02:17;;;;;;;4.15;1.83;;;;;;;19.83;50.08;98218.00;4959860;28;20070;-78
2023/11/02 10:04:43;;;;;;;5.53;1.90;;;;;;;19.86;49.82;98213.19;4992162;28;20568;-79
2023/11/02 10:07:09;;;;;;;3.90;2.05;;;;;;;19.91;50.11;98214.41;4959508;28;20034;-80
2023/11/02 10:09:35;;;;;;;8.35;2.40;;;;;;;19.92;49.88;98206.28;4975828;28;20030;-80
2023/11/02 10:12:00;;;;;;;3.60;1.80;;;;;;;19.96;50.15;98207.56;4975893;28;20045;-78
2023/11/02 10:14:26;;;;;;;6.65;2.33;;;;;;;19.98;50.18;98212.66;4960031;28;20077;-84
2023/11/02 10:17:01;;;;;;;5.00;2.20;;;;;;;20.02;50.32;98205.94;4959682;28;20126;-81
2023/11/02 10:19:26;;;;;;;4.60;2.03;;;;;;;20.03;50.46;98194.34;4959813;28;20498;-82
2023/11/02 10:21:52;;;;;;;4.00;2.13;;;;;;;20.10;50.42;98197.06;4959905;28;20041;-80
2023/11/02 10:24:33;;;;;;;3.60;2.00;;;;;;;20.08;50.26;98202.53;4959576;28;20038;-82
2023/11/02 10:26:59;;;;;;;5.75;2.10;;;;;;;20.08;50.13;98204.38;4975585;28;20029;-82
2023/11/02 10:29:31;;;;;;;4.30;1.77;;;;;;;20.02;50.46;98193.53;4959463;28;20031;-80
2023/11/02 10:31:56;;;;;;;8.48;2.15;;;;;;;19.98;50.40;98194.94;4975354;28;20026;-78
2023/11/02 10:34:25;;;;;;;3.63;1.80;;;;;;;19.92;50.37;98195.69;4975512;28;20164;-80
2023/11/02 10:36:52;;;;;;;4.38;1.60;;;;;;;19.93;50.46;98192.03;4959580;28;20062;-80
2023/11/02 10:39:18;;;;;;;5.25;1.85;;;;;;;19.93;50.22;98191.22;4976033;28;20120;-81
2023/11/02 10:41:52;;;;;;;4.97;1.98;;;;;;;19.92;50.45;98189.59;4976155;28;20030;-81
2023/11/02 10:44:17;;;;;;;4.63;2.03;;;;;;;19.94;50.06;98188.38;4959036;28;20051;-83
2023/11/02 10:46:44;;;;;;;3.88;1.80;;;;;;;19.94;50.23;98184.91;4959514;28;20035;-81
2023/11/02 10:49:11;;;;;;;7.35;1.95;;;;;;;19.94;50.23;98179.59;4960067;28;20108;-80
2023/11/02 10:51:37;;;;;;;8.05;1.83;;;;;;;19.95;50.44;98179.41;4959221;28;20038;-81
2023/11/02 10:54:24;;;;;;;6.45;2.22;;;;;;;19.94;50.40;98174.31;4959348;28;20117;-80
2023/11/02 10:56:55;;;;;;;5.13;1.90;;;;;;;19.93;50.58;98173.50;4976244;28;20051;-80
2023/11/02 10:59:20;;;;;;;4.20;1.83;;;;;;;19.87;50.40;98166.31;4959631;28;20288;-80
2023/11/02 11:01:46;;;;;;;5.20;1.80;;;;;;;19.89;50.54;98169.59;4959683;28;20034;-79
2023/11/02 11:04:12;;;;;;;7.28;2.25;;;;;;;19.87;50.47;98166.31;4959881;28;20026;-81
2023/11/02 11:06:42;;;;;;;4.93;1.98;;;;;;;19.80;50.43;98160.16;4959387;28;20521;-80
2023/11/02 11:09:10;;;;;;;3.97;1.92;;;;;;;19.81;50.63;98161.78;4959594;28;20089;-78
2023/11/02 11:11:36;;;;;;;6.40;2.10;;;;;;;19.79;50.78;98154.03;4959989;28;20147;-81
2023/11/02 11:14:01;;;;;;;5.28;1.80;;;;;;;19.80;50.78;98149.56;4959219;28;20038;-78
2023/11/02 11:16:27;;;;;;;6.65;2.35;;;;;;;19.82;50.48;98147.53;4975070;28;20026;-79
2023/11/02 11:18:53;;;;;;;3.80;2.15;;;;;;;19.87;50.51;98145.13;4958978;28;20078;-81
2023/11/02 11:21:19;;;;;;;7.88;2.10;;;;;;;19.90;50.48;98138.63;4959329;28;20037;-79
2023/11/02 11:23:45;;;;;;;6.20;2.05;;;;;;;19.94;50.47;98127.47;4959078;28;20042;-78
2023/11/02 11:26:11;;;;;;;9.77;2.45;;;;;;;19.94;50.43;98116.03;4959463;28;20117;-80
2023/11/02 11:28:38;;;;;;;3.83;2.40;;;;;;;20.02;50.31;98127.31;4975790;28;20121;-78
2023/11/02 11:31:05;;;;;;;8.57;2.30;;;;;;;20.06;50.22;98125.09;4961557;28;20105;-79
2023/11/02 11:33:50;;;;;;;3.95;2.17;;;;;;;20.10;50.16;98122.88;4978049;28;20776;-78
2023/11/02 11:36:22;;;;;;;4.22;2.30;;;;;;;20.13;50.18;98123.31;4962124;28;20053;-79
2023/11/02 11:38:50;;;;;;;6.28;2.53;;;;;;;20.16;50.14;98120.28;4995089;28;20047;-78
2023/11/02 11:41:34;;;;;;;;;;;;;;;20.27;49.77;98116.25;4978696;28;20537;-80
2023/11/02 11:44:05;;;;;;;7.03;2.25;;;;;;;20.35;49.71;98121.44;4978209;28;19959;-79